sensor_id;sensor_type;location;lat;lon;timestamp;P1;durP1;ratioP1;P2;durP2;ratioP2
20557;SDS011;10437;48.156;11.530;2023-03-01T00:01:28;24.10;;;11.33;;
20557;SDS011;10437;48.156;11.530;2023-03-01T00:03:55;26.83;;;12.27;;
20557;SDS011;10437;48.156;11.530;2023-03-01T00:06:23;23.73;;;12.53;;
20557;SDS011;10437;48.156;11.530;2023-03-01T00:08:52;24.83;;;11.87;;
20557;SDS011;10437;48.156;11.530;2023-03-01T00:11:20;22.90;;;11.77;;
20557;SDS011;10437;48.156;11.530;2023-03-01T00:13:48;22.87;;;11.73;;
20557;SDS011;10437;48.156;11.530;2023-03-01T00:16:16;26.00;;;12.07;;
20557;SDS011;10437;48.156;11.530;2023-03-01T00:18:44;24.53;;;11.80;;
20557;SDS011;10437;48.156;11.530;2023-03-01T00:21:11;24.03;;;11.73;;
20557;SDS011;10437;48.156;11.530;2023-03-01T00:23:38;26.30;;;12.60;;
20557;SDS011;10437;48.156;11.530;2023-03-01T00:26:07;24.80;;;11.47;;
20557;SDS011;10437;48.156;11.530;2023-03-01T00:28:35;26.10;;;12.33;;
20557;SDS011;10437;48.156;11.530;2023-03-01T00:31:03;23.60;;;11.60;;
20557;SDS011;10437;48.156;11.530;2023-03-01T00:33:30;23.70;;;12.23;;
20557;SDS011;10437;48.156;11.530;2023-03-01T00:35:57;22.47;;;11.33;;
20557;SDS011;10437;48.156;11.530;2023-03-01T00:38:24;23.20;;;11.47;;
20557;SDS011;10437;48.156;11.530;2023-03-01T00:40:51;23.57;;;12.27;;
20557;SDS011;10437;48.156;11.530;2023-03-01T00:43:20;24.37;;;11.97;;
20557;SDS011;10437;48.156;11.530;2023-03-01T00:45:47;23.73;;;11.90;;
20557;SDS011;10437;48.156;11.530;2023-03-01T00:48:14;24.17;;;11.90;;
20557;SDS011;10437;48.156;11.530;2023-03-01T00:50:41;21.47;;;11.43;;
20557;SDS011;10437;48.156;11.530;2023-03-01T00:53:08;25.27;;;11.67;;
20557;SDS011;10437;48.156;11.530;2023-03-01T00:55:36;25.27;;;12.20;;
20557;SDS011;10437;48.156;11.530;2023-03-01T00:58:03;25.57;;;12.10;;
20557;SDS011;10437;48.156;11.530;2023-03-01T01:00:31;21.67;;;11.50;;
20557;SDS011;10437;48.156;11.530;2023-03-01T01:02:58;21.13;;;10.77;;
20557;SDS011;10437;48.156;11.530;2023-03-01T01:05:25;23.90;;;11.53;;
20557;SDS011;10437;48.156;11.530;2023-03-01T01:07:53;25.60;;;12.43;;
20557;SDS011;10437;48.156;11.530;2023-03-01T01:10:20;25.17;;;12.20;;
20557;SDS011;10437;48.156;11.530;2023-03-01T01:12:47;22.97;;;11.53;;
20557;SDS011;10437;48.156;11.530;2023-03-01T01:15:14;26.30;;;11.83;;
20557;SDS011;10437;48.156;11.530;2023-03-01T01:17:42;22.93;;;11.20;;
20557;SDS011;10437;48.156;11.530;2023-03-01T01:20:10;23.33;;;11.77;;
20557;SDS011;10437;48.156;11.530;2023-03-01T01:22:39;24.93;;;12.00;;
20557;SDS011;10437;48.156;11.530;2023-03-01T01:25:06;24.40;;;11.50;;
20557;SDS011;10437;48.156;11.530;2023-03-01T01:27:33;25.77;;;12.80;;
20557;SDS011;10437;48.156;11.530;2023-03-01T01:30:00;24.40;;;12.37;;
20557;SDS011;10437;48.156;11.530;2023-03-01T01:32:27;23.23;;;11.30;;
20557;SDS011;10437;48.156;11.530;2023-03-01T01:34:56;24.57;;;12.33;;
20557;SDS011;10437;48.156;11.530;2023-03-01T01:37:23;28.17;;;11.90;;
20557;SDS011;10437;48.156;11.530;2023-03-01T01:39:55;22.23;;;11.13;;
20557;SDS011;10437;48.156;11.530;2023-03-01T01:42:23;24.40;;;12.17;;
20557;SDS011;10437;48.156;11.530;2023-03-01T01:47:50;24.47;;;11.83;;
20557;SDS011;10437;48.156;11.530;2023-03-01T01:50:20;23.83;;;11.30;;
20557;SDS011;10437;48.156;11.530;2023-03-01T01:52:48;25.57;;;11.83;;
20557;SDS011;10437;48.156;11.530;2023-03-01T01:55:16;25.93;;;11.50;;
20557;SDS011;10437;48.156;11.530;2023-03-01T01:57:46;24.43;;;12.10;;
20557;SDS011;10437;48.156;11.530;2023-03-01T02:00:15;25.90;;;12.10;;
20557;SDS011;10437;48.156;11.530;2023-03-01T02:02:43;26.10;;;11.00;;
20557;SDS011;10437;48.156;11.530;2023-03-01T02:11:20;22.30;;;10.87;;
20557;SDS011;10437;48.156;11.530;2023-03-01T02:13:47;26.13;;;11.97;;
20557;SDS011;10437;48.156;11.530;2023-03-01T02:16:15;24.10;;;12.10;;
20557;SDS011;10437;48.156;11.530;2023-03-01T02:18:42;24.17;;;11.77;;
20557;SDS011;10437;48.156;11.530;2023-03-01T02:23:59;22.47;;;11.00;;
20557;SDS011;10437;48.156;11.530;2023-03-01T02:26:32;23.60;;;12.13;;
20557;SDS011;10437;48.156;11.530;2023-03-01T02:29:03;25.73;;;11.97;;
20557;SDS011;10437;48.156;11.530;2023-03-01T02:31:30;26.03;;;11.47;;
20557;SDS011;10437;48.156;11.530;2023-03-01T02:34:08;26.37;;;12.63;;
20557;SDS011;10437;48.156;11.530;2023-03-01T02:36:36;25.10;;;11.63;;
20557;SDS011;10437;48.156;11.530;2023-03-01T02:39:05;24.47;;;11.33;;
20557;SDS011;10437;48.156;11.530;2023-03-01T02:41:39;26.23;;;11.67;;
20557;SDS011;10437;48.156;11.530;2023-03-01T02:44:09;28.40;;;12.43;;
20557;SDS011;10437;48.156;11.530;2023-03-01T02:46:41;26.60;;;11.47;;
20557;SDS011;10437;48.156;11.530;2023-03-01T02:49:16;24.17;;;11.93;;
20557;SDS011;10437;48.156;11.530;2023-03-01T02:51:46;23.60;;;11.93;;
20557;SDS011;10437;48.156;11.530;2023-03-01T02:54:21;25.27;;;12.20;;
20557;SDS011;10437;48.156;11.530;2023-03-01T02:56:51;24.33;;;11.53;;
20557;SDS011;10437;48.156;11.530;2023-03-01T02:59:20;25.10;;;12.13;;
20557;SDS011;10437;48.156;11.530;2023-03-01T03:01:50;23.50;;;11.47;;
20557;SDS011;10437;48.156;11.530;2023-03-01T03:04:18;26.27;;;12.30;;
20557;SDS011;10437;48.156;11.530;2023-03-01T03:06:46;23.27;;;11.43;;
20557;SDS011;10437;48.156;11.530;2023-03-01T03:09:14;24.43;;;11.40;;
20557;SDS011;10437;48.156;11.530;2023-03-01T03:11:41;26.30;;;12.53;;
20557;SDS011;10437;48.156;11.530;2023-03-01T03:14:09;22.23;;;11.73;;
20557;SDS011;10437;48.156;11.530;2023-03-01T03:16:40;20.77;;;11.50;;
20557;SDS011;10437;48.156;11.530;2023-03-01T03:19:07;22.63;;;11.77;;
20557;SDS011;10437;48.156;11.530;2023-03-01T03:21:34;28.63;;;13.00;;
20557;SDS011;10437;48.156;11.530;2023-03-01T03:24:02;22.27;;;11.63;;
20557;SDS011;10437;48.156;11.530;2023-03-01T03:26:30;22.53;;;12.07;;
20557;SDS011;10437;48.156;11.530;2023-03-01T03:28:57;25.33;;;12.10;;
20557;SDS011;10437;48.156;11.530;2023-03-01T03:31:24;25.60;;;12.03;;
20557;SDS011;10437;48.156;11.530;2023-03-01T03:33:53;22.83;;;11.93;;
20557;SDS011;10437;48.156;11.530;2023-03-01T03:36:21;26.37;;;12.17;;
20557;SDS011;10437;48.156;11.530;2023-03-01T03:38:49;23.40;;;11.73;;
20557;SDS011;10437;48.156;11.530;2023-03-01T03:41:17;25.03;;;11.77;;
20557;SDS011;10437;48.156;11.530;2023-03-01T03:43:44;26.53;;;11.97;;
20557;SDS011;10437;48.156;11.530;2023-03-01T03:46:11;27.87;;;12.83;;
20557;SDS011;10437;48.156;11.530;2023-03-01T03:48:39;22.93;;;11.93;;
20557;SDS011;10437;48.156;11.530;2023-03-01T03:51:09;25.60;;;12.40;;
20557;SDS011;10437;48.156;11.530;2023-03-01T03:53:36;24.87;;;11.80;;
20557;SDS011;10437;48.156;11.530;2023-03-01T03:56:03;27.93;;;12.77;;
20557;SDS011;10437;48.156;11.530;2023-03-01T03:58:30;25.17;;;12.40;;
20557;SDS011;10437;48.156;11.530;2023-03-01T04:00:58;28.27;;;13.07;;
20557;SDS011;10437;48.156;11.530;2023-03-01T04:03:27;23.33;;;11.80;;
20557;SDS011;10437;48.156;11.530;2023-03-01T04:05:56;29.77;;;12.90;;
20557;SDS011;10437;48.156;11.530;2023-03-01T04:08:25;25.90;;;12.33;;
20557;SDS011;10437;48.156;11.530;2023-03-01T04:10:55;27.90;;;12.13;;
20557;SDS011;10437;48.156;11.530;2023-03-01T04:13:23;24.90;;;12.33;;
20557;SDS011;10437;48.156;11.530;2023-03-01T04:15:51;27.77;;;12.73;;
20557;SDS011;10437;48.156;11.530;2023-03-01T04:18:18;24.73;;;12.33;;
20557;SDS011;10437;48.156;11.530;2023-03-01T04:20:46;26.20;;;13.40;;
20557;SDS011;10437;48.156;11.530;2023-03-01T04:23:14;28.73;;;11.93;;
20557;SDS011;10437;48.156;11.530;2023-03-01T04:25:46;28.87;;;13.33;;
20557;SDS011;10437;48.156;11.530;2023-03-01T04:28:18;24.80;;;12.27;;
20557;SDS011;10437;48.156;11.530;2023-03-01T04:30:45;26.30;;;12.90;;
20557;SDS011;10437;48.156;11.530;2023-03-01T04:33:13;25.70;;;12.17;;
20557;SDS011;10437;48.156;11.530;2023-03-01T04:35:41;26.47;;;13.13;;
20557;SDS011;10437;48.156;11.530;2023-03-01T04:38:08;25.77;;;12.63;;
20557;SDS011;10437;48.156;11.530;2023-03-01T04:40:35;28.40;;;12.97;;
20557;SDS011;10437;48.156;11.530;2023-03-01T04:43:04;23.93;;;11.73;;
20557;SDS011;10437;48.156;11.530;2023-03-01T04:45:31;23.87;;;12.23;;
20557;SDS011;10437;48.156;11.530;2023-03-01T04:48:00;24.20;;;12.27;;
20557;SDS011;10437;48.156;11.530;2023-03-01T04:50:27;26.50;;;12.63;;
20557;SDS011;10437;48.156;11.530;2023-03-01T04:52:54;24.63;;;12.60;;
20557;SDS011;10437;48.156;11.530;2023-03-01T04:55:23;26.90;;;12.57;;
20557;SDS011;10437;48.156;11.530;2023-03-01T04:57:51;25.47;;;12.67;;
20557;SDS011;10437;48.156;11.530;2023-03-01T05:00:20;22.97;;;11.93;;
20557;SDS011;10437;48.156;11.530;2023-03-01T05:02:48;27.70;;;12.13;;
20557;SDS011;10437;48.156;11.530;2023-03-01T05:05:22;26.23;;;12.97;;
20557;SDS011;10437;48.156;11.530;2023-03-01T05:07:54;25.90;;;12.77;;
20557;SDS011;10437;48.156;11.530;2023-03-01T05:10:21;30.03;;;13.27;;
20557;SDS011;10437;48.156;11.530;2023-03-01T05:12:49;23.10;;;11.63;;
20557;SDS011;10437;48.156;11.530;2023-03-01T05:15:17;28.50;;;12.97;;
20557;SDS011;10437;48.156;11.530;2023-03-01T05:17:48;25.00;;;12.03;;
20557;SDS011;10437;48.156;11.530;2023-03-01T05:20:15;25.63;;;12.33;;
20557;SDS011;10437;48.156;11.530;2023-03-01T05:22:42;24.70;;;12.17;;
20557;SDS011;10437;48.156;11.530;2023-03-01T05:25:09;25.10;;;12.50;;
20557;SDS011;10437;48.156;11.530;2023-03-01T05:27:38;30.83;;;13.10;;
20557;SDS011;10437;48.156;11.530;2023-03-01T05:30:06;27.33;;;12.67;;
20557;SDS011;10437;48.156;11.530;2023-03-01T05:32:42;28.60;;;12.60;;
20557;SDS011;10437;48.156;11.530;2023-03-01T05:35:11;28.77;;;12.53;;
20557;SDS011;10437;48.156;11.530;2023-03-01T05:37:42;28.13;;;13.20;;
20557;SDS011;10437;48.156;11.530;2023-03-01T05:40:10;26.77;;;12.40;;
20557;SDS011;10437;48.156;11.530;2023-03-01T05:42:42;28.70;;;12.60;;
20557;SDS011;10437;48.156;11.530;2023-03-01T05:45:09;26.00;;;12.77;;
20557;SDS011;10437;48.156;11.530;2023-03-01T05:47:37;26.23;;;13.23;;
20557;SDS011;10437;48.156;11.530;2023-03-01T05:50:08;28.87;;;12.27;;
20557;SDS011;10437;48.156;11.530;2023-03-01T05:52:37;28.60;;;12.87;;
20557;SDS011;10437;48.156;11.530;2023-03-01T05:55:04;24.47;;;12.67;;
20557;SDS011;10437;48.156;11.530;2023-03-01T05:57:32;29.73;;;13.23;;
20557;SDS011;10437;48.156;11.530;2023-03-01T05:59:59;28.77;;;12.50;;
20557;SDS011;10437;48.156;11.530;2023-03-01T06:02:26;26.73;;;11.60;;
20557;SDS011;10437;48.156;11.530;2023-03-01T06:04:54;26.90;;;13.00;;
20557;SDS011;10437;48.156;11.530;2023-03-01T06:07:21;29.00;;;13.43;;
20557;SDS011;10437;48.156;11.530;2023-03-01T06:09:50;31.00;;;12.00;;
20557;SDS011;10437;48.156;11.530;2023-03-01T06:12:17;25.47;;;12.70;;
20557;SDS011;10437;48.156;11.530;2023-03-01T06:14:45;30.10;;;12.63;;
20557;SDS011;10437;48.156;11.530;2023-03-01T06:17:13;26.83;;;11.93;;
20557;SDS011;10437;48.156;11.530;2023-03-01T06:19:40;26.60;;;12.63;;
20557;SDS011;10437;48.156;11.530;2023-03-01T06:22:07;28.60;;;13.00;;
20557;SDS011;10437;48.156;11.530;2023-03-01T06:24:34;25.87;;;12.70;;
20557;SDS011;10437;48.156;11.530;2023-03-01T06:27:03;26.30;;;12.93;;
20557;SDS011;10437;48.156;11.530;2023-03-01T06:29:30;28.33;;;13.47;;
20557;SDS011;10437;48.156;11.530;2023-03-01T06:31:57;26.30;;;12.57;;
20557;SDS011;10437;48.156;11.530;2023-03-01T06:34:24;27.57;;;12.40;;
20557;SDS011;10437;48.156;11.530;2023-03-01T06:36:52;29.70;;;13.63;;
20557;SDS011;10437;48.156;11.530;2023-03-01T06:39:19;27.17;;;12.47;;
20557;SDS011;10437;48.156;11.530;2023-03-01T06:41:46;30.90;;;12.90;;
20557;SDS011;10437;48.156;11.530;2023-03-01T06:44:15;32.13;;;13.27;;
20557;SDS011;10437;48.156;11.530;2023-03-01T06:46:42;32.27;;;13.33;;
20557;SDS011;10437;48.156;11.530;2023-03-01T06:49:09;27.43;;;12.23;;
20557;SDS011;10437;48.156;11.530;2023-03-01T06:51:36;29.77;;;13.47;;
20557;SDS011;10437;48.156;11.530;2023-03-01T06:54:03;27.00;;;12.83;;
20557;SDS011;10437;48.156;11.530;2023-03-01T06:56:31;29.00;;;13.43;;
20557;SDS011;10437;48.156;11.530;2023-03-01T06:58:58;27.90;;;13.03;;
20557;SDS011;10437;48.156;11.530;2023-03-01T07:01:26;24.70;;;12.63;;
20557;SDS011;10437;48.156;11.530;2023-03-01T07:03:53;27.23;;;12.77;;
20557;SDS011;10437;48.156;11.530;2023-03-01T07:06:20;26.53;;;12.67;;
20557;SDS011;10437;48.156;11.530;2023-03-01T07:08:47;28.27;;;13.27;;
20557;SDS011;10437;48.156;11.530;2023-03-01T07:11:15;25.90;;;12.13;;
20557;SDS011;10437;48.156;11.530;2023-03-01T07:13:42;35.30;;;13.77;;
20557;SDS011;10437;48.156;11.530;2023-03-01T07:16:09;26.57;;;12.80;;
20557;SDS011;10437;48.156;11.530;2023-03-01T07:18:38;28.93;;;12.43;;
20557;SDS011;10437;48.156;11.530;2023-03-01T07:21:05;26.73;;;12.47;;
20557;SDS011;10437;48.156;11.530;2023-03-01T07:23:33;32.67;;;13.47;;
20557;SDS011;10437;48.156;11.530;2023-03-01T07:26:00;27.07;;;12.67;;
20557;SDS011;10437;48.156;11.530;2023-03-01T07:28:27;28.97;;;12.87;;
20557;SDS011;10437;48.156;11.530;2023-03-01T07:30:54;26.20;;;12.87;;
20557;SDS011;10437;48.156;11.530;2023-03-01T07:33:21;32.30;;;13.20;;
20557;SDS011;10437;48.156;11.530;2023-03-01T07:35:55;30.73;;;13.57;;
20557;SDS011;10437;48.156;11.530;2023-03-01T07:38:22;32.00;;;12.93;;
20557;SDS011;10437;48.156;11.530;2023-03-01T07:40:49;31.30;;;15.40;;
20557;SDS011;10437;48.156;11.530;2023-03-01T07:43:16;26.53;;;13.47;;
20557;SDS011;10437;48.156;11.530;2023-03-01T07:45:44;29.40;;;13.17;;
20557;SDS011;10437;48.156;11.530;2023-03-01T07:48:11;30.77;;;13.10;;
20557;SDS011;10437;48.156;11.530;2023-03-01T07:50:38;29.33;;;13.20;;
20557;SDS011;10437;48.156;11.530;2023-03-01T07:53:06;28.87;;;12.67;;
20557;SDS011;10437;48.156;11.530;2023-03-01T07:55:33;27.70;;;12.87;;
20557;SDS011;10437;48.156;11.530;2023-03-01T07:58:01;27.43;;;13.10;;
20557;SDS011;10437;48.156;11.530;2023-03-01T08:00:28;35.27;;;13.50;;
20557;SDS011;10437;48.156;11.530;2023-03-01T08:02:58;28.73;;;13.67;;
20557;SDS011;10437;48.156;11.530;2023-03-01T08:05:25;27.13;;;13.03;;
20557;SDS011;10437;48.156;11.530;2023-03-01T08:07:52;28.63;;;12.87;;
20557;SDS011;10437;48.156;11.530;2023-03-01T08:10:21;31.90;;;14.03;;
20557;SDS011;10437;48.156;11.530;2023-03-01T08:12:50;28.10;;;14.00;;
20557;SDS011;10437;48.156;11.530;2023-03-01T08:15:18;35.40;;;13.87;;
20557;SDS011;10437;48.156;11.530;2023-03-01T08:17:45;32.90;;;14.23;;
20557;SDS011;10437;48.156;11.530;2023-03-01T08:20:12;28.33;;;12.53;;
20557;SDS011;10437;48.156;11.530;2023-03-01T08:22:39;32.60;;;14.03;;
20557;SDS011;10437;48.156;11.530;2023-03-01T08:25:06;30.27;;;13.70;;
20557;SDS011;10437;48.156;11.530;2023-03-01T08:27:35;31.57;;;14.07;;
20557;SDS011;10437;48.156;11.530;2023-03-01T08:30:03;28.83;;;13.57;;
20557;SDS011;10437;48.156;11.530;2023-03-01T08:32:32;27.37;;;13.03;;
20557;SDS011;10437;48.156;11.530;2023-03-01T08:35:02;27.53;;;13.20;;
20557;SDS011;10437;48.156;11.530;2023-03-01T08:37:29;34.87;;;13.97;;
20557;SDS011;10437;48.156;11.530;2023-03-01T08:39:58;35.93;;;13.27;;
20557;SDS011;10437;48.156;11.530;2023-03-01T08:42:25;29.93;;;13.10;;
20557;SDS011;10437;48.156;11.530;2023-03-01T08:44:53;32.60;;;13.27;;
20557;SDS011;10437;48.156;11.530;2023-03-01T08:47:21;27.23;;;12.80;;
20557;SDS011;10437;48.156;11.530;2023-03-01T08:49:49;33.27;;;13.60;;
20557;SDS011;10437;48.156;11.530;2023-03-01T08:52:16;29.90;;;13.27;;
20557;SDS011;10437;48.156;11.530;2023-03-01T08:54:43;30.60;;;14.20;;
20557;SDS011;10437;48.156;11.530;2023-03-01T08:57:10;26.90;;;12.90;;
20557;SDS011;10437;48.156;11.530;2023-03-01T08:59:37;30.07;;;13.70;;
20557;SDS011;10437;48.156;11.530;2023-03-01T09:02:10;26.97;;;13.43;;
20557;SDS011;10437;48.156;11.530;2023-03-01T09:04:39;30.70;;;13.67;;
20557;SDS011;10437;48.156;11.530;2023-03-01T09:07:06;29.43;;;13.80;;
20557;SDS011;10437;48.156;11.530;2023-03-01T09:09:33;28.10;;;13.53;;
20557;SDS011;10437;48.156;11.530;2023-03-01T09:12:00;32.13;;;14.17;;
20557;SDS011;10437;48.156;11.530;2023-03-01T09:14:27;32.33;;;14.03;;
20557;SDS011;10437;48.156;11.530;2023-03-01T09:16:55;36.43;;;14.07;;
20557;SDS011;10437;48.156;11.530;2023-03-01T09:19:23;30.10;;;14.00;;
20557;SDS011;10437;48.156;11.530;2023-03-01T09:21:50;30.30;;;13.90;;
20557;SDS011;10437;48.156;11.530;2023-03-01T09:24:18;28.13;;;13.30;;
20557;SDS011;10437;48.156;11.530;2023-03-01T09:26:46;27.80;;;12.83;;
20557;SDS011;10437;48.156;11.530;2023-03-01T09:29:14;31.43;;;14.33;;
20557;SDS011;10437;48.156;11.530;2023-03-01T09:31:41;31.90;;;14.20;;
20557;SDS011;10437;48.156;11.530;2023-03-01T09:34:08;27.97;;;13.73;;
20557;SDS011;10437;48.156;11.530;2023-03-01T09:36:37;31.07;;;14.53;;
20557;SDS011;10437;48.156;11.530;2023-03-01T09:39:04;30.77;;;14.83;;
20557;SDS011;10437;48.156;11.530;2023-03-01T09:41:44;30.43;;;13.70;;
20557;SDS011;10437;48.156;11.530;2023-03-01T09:44:14;27.03;;;13.07;;
20557;SDS011;10437;48.156;11.530;2023-03-01T09:46:43;31.20;;;14.40;;
20557;SDS011;10437;48.156;11.530;2023-03-01T09:49:12;29.93;;;14.13;;
20557;SDS011;10437;48.156;11.530;2023-03-01T09:51:46;33.70;;;13.60;;
20557;SDS011;10437;48.156;11.530;2023-03-01T09:54:21;26.03;;;13.10;;
20557;SDS011;10437;48.156;11.530;2023-03-01T09:56:52;31.30;;;14.27;;
20557;SDS011;10437;48.156;11.530;2023-03-01T09:59:22;36.47;;;14.73;;
20557;SDS011;10437;48.156;11.530;2023-03-01T10:01:52;33.17;;;15.10;;
20557;SDS011;10437;48.156;11.530;2023-03-01T10:04:25;27.87;;;13.60;;
20557;SDS011;10437;48.156;11.530;2023-03-01T10:07:01;33.57;;;14.70;;
20557;SDS011;10437;48.156;11.530;2023-03-01T10:09:30;31.40;;;14.60;;
20557;SDS011;10437;48.156;11.530;2023-03-01T10:11:58;28.43;;;12.73;;
20557;SDS011;10437;48.156;11.530;2023-03-01T10:14:29;27.43;;;12.20;;
20557;SDS011;10437;48.156;11.530;2023-03-01T10:17:01;29.90;;;13.23;;
20557;SDS011;10437;48.156;11.530;2023-03-01T10:19:30;28.47;;;14.03;;
20557;SDS011;10437;48.156;11.530;2023-03-01T10:22:00;28.90;;;13.27;;
20557;SDS011;10437;48.156;11.530;2023-03-01T10:24:32;28.57;;;13.00;;
20557;SDS011;10437;48.156;11.530;2023-03-01T10:27:03;30.73;;;13.27;;
20557;SDS011;10437;48.156;11.530;2023-03-01T10:29:34;28.97;;;13.77;;
20557;SDS011;10437;48.156;11.530;2023-03-01T10:32:04;28.33;;;14.10;;
20557;SDS011;10437;48.156;11.530;2023-03-01T10:34:32;30.60;;;14.30;;
20557;SDS011;10437;48.156;11.530;2023-03-01T10:37:10;30.27;;;14.90;;
20557;SDS011;10437;48.156;11.530;2023-03-01T10:39:54;30.07;;;13.53;;
20557;SDS011;10437;48.156;11.530;2023-03-01T10:42:25;28.67;;;13.27;;
20557;SDS011;10437;48.156;11.530;2023-03-01T10:44:53;29.10;;;14.60;;
20557;SDS011;10437;48.156;11.530;2023-03-01T10:47:20;28.13;;;12.73;;
20557;SDS011;10437;48.156;11.530;2023-03-01T10:49:52;29.03;;;13.43;;
20557;SDS011;10437;48.156;11.530;2023-03-01T10:52:21;26.07;;;13.60;;
20557;SDS011;10437;48.156;11.530;2023-03-01T10:54:53;27.43;;;14.10;;
20557;SDS011;10437;48.156;11.530;2023-03-01T10:57:29;29.20;;;14.13;;
20557;SDS011;10437;48.156;11.530;2023-03-01T11:00:10;27.40;;;14.13;;
20557;SDS011;10437;48.156;11.530;2023-03-01T11:02:41;28.73;;;13.80;;
20557;SDS011;10437;48.156;11.530;2023-03-01T11:05:15;30.27;;;15.40;;
20557;SDS011;10437;48.156;11.530;2023-03-01T11:07:49;28.17;;;14.10;;
20557;SDS011;10437;48.156;11.530;2023-03-01T11:10:18;28.30;;;14.33;;
20557;SDS011;10437;48.156;11.530;2023-03-01T11:12:46;29.53;;;14.37;;
20557;SDS011;10437;48.156;11.530;2023-03-01T11:15:20;29.97;;;15.10;;
20557;SDS011;10437;48.156;11.530;2023-03-01T11:17:48;30.77;;;14.87;;
20557;SDS011;10437;48.156;11.530;2023-03-01T11:20:17;28.30;;;15.23;;
20557;SDS011;10437;48.156;11.530;2023-03-01T11:22:49;27.07;;;14.07;;
20557;SDS011;10437;48.156;11.530;2023-03-01T11:25:17;29.27;;;14.87;;
20557;SDS011;10437;48.156;11.530;2023-03-01T11:27:49;30.00;;;14.60;;
20557;SDS011;10437;48.156;11.530;2023-03-01T11:30:18;26.57;;;14.33;;
20557;SDS011;10437;48.156;11.530;2023-03-01T11:32:47;31.37;;;14.90;;
20557;SDS011;10437;48.156;11.530;2023-03-01T11:35:16;23.83;;;14.70;;
20557;SDS011;10437;48.156;11.530;2023-03-01T11:37:51;25.58;;;13.77;;
20557;SDS011;10437;48.156;11.530;2023-03-01T11:40:23;25.27;;;14.02;;
20557;SDS011;10437;48.156;11.530;2023-03-01T11:42:54;25.55;;;14.10;;
20557;SDS011;10437;48.156;11.530;2023-03-01T11:45:26;22.48;;;13.63;;
20557;SDS011;10437;48.156;11.530;2023-03-01T11:48:07;22.75;;;13.43;;
20557;SDS011;10437;48.156;11.530;2023-03-01T11:50:40;25.08;;;14.35;;
20557;SDS011;10437;48.156;11.530;2023-03-01T11:53:22;23.27;;;14.43;;
20557;SDS011;10437;48.156;11.530;2023-03-01T11:55:55;23.63;;;13.80;;
20557;SDS011;10437;48.156;11.530;2023-03-01T12:01:17;27.27;;;14.63;;
20557;SDS011;10437;48.156;11.530;2023-03-01T12:03:53;26.13;;;14.40;;
20557;SDS011;10437;48.156;11.530;2023-03-01T12:06:27;27.02;;;14.07;;
20557;SDS011;10437;48.156;11.530;2023-03-01T12:09:00;28.92;;;15.18;;
20557;SDS011;10437;48.156;11.530;2023-03-01T12:11:39;26.63;;;14.70;;
20557;SDS011;10437;48.156;11.530;2023-03-01T12:16:55;29.20;;;15.10;;
20557;SDS011;10437;48.156;11.530;2023-03-01T12:19:29;29.37;;;14.50;;
20557;SDS011;10437;48.156;11.530;2023-03-01T12:22:23;32.93;;;16.33;;
20557;SDS011;10437;48.156;11.530;2023-03-01T12:25:00;34.53;;;15.57;;
20557;SDS011;10437;48.156;11.530;2023-03-01T12:27:49;35.07;;;14.80;;
20557;SDS011;10437;48.156;11.530;2023-03-01T12:30:33;28.63;;;14.70;;
20557;SDS011;10437;48.156;11.530;2023-03-01T12:33:12;27.17;;;14.43;;
20557;SDS011;10437;48.156;11.530;2023-03-01T12:36:03;28.73;;;14.40;;
20557;SDS011;10437;48.156;11.530;2023-03-01T12:38:37;31.00;;;14.90;;
20557;SDS011;10437;48.156;11.530;2023-03-01T12:41:13;27.73;;;14.23;;
20557;SDS011;10437;48.156;11.530;2023-03-01T12:43:47;29.00;;;15.37;;
20557;SDS011;10437;48.156;11.530;2023-03-01T12:46:21;32.80;;;15.30;;
20557;SDS011;10437;48.156;11.530;2023-03-01T12:48:59;28.60;;;15.07;;
20557;SDS011;10437;48.156;11.530;2023-03-01T12:51:34;28.83;;;14.67;;
20557;SDS011;10437;48.156;11.530;2023-03-01T12:54:05;30.30;;;14.43;;
20557;SDS011;10437;48.156;11.530;2023-03-01T12:56:41;33.03;;;15.20;;
20557;SDS011;10437;48.156;11.530;2023-03-01T12:59:18;30.30;;;14.80;;
20557;SDS011;10437;48.156;11.530;2023-03-01T13:01:49;29.80;;;15.10;;
20557;SDS011;10437;48.156;11.530;2023-03-01T13:04:27;27.87;;;14.03;;
20557;SDS011;10437;48.156;11.530;2023-03-01T13:06:59;24.23;;;12.87;;
20557;SDS011;10437;48.156;11.530;2023-03-01T13:09:39;29.67;;;15.07;;
20557;SDS011;10437;48.156;11.530;2023-03-01T13:15:26;26.73;;;14.00;;
20557;SDS011;10437;48.156;11.530;2023-03-01T13:17:55;29.73;;;13.80;;
20557;SDS011;10437;48.156;11.530;2023-03-01T13:20:23;28.07;;;15.27;;
20557;SDS011;10437;48.156;11.530;2023-03-01T13:22:59;27.13;;;14.03;;
20557;SDS011;10437;48.156;11.530;2023-03-01T13:25:27;27.10;;;15.30;;
20557;SDS011;10437;48.156;11.530;2023-03-01T13:27:57;31.07;;;15.50;;
20557;SDS011;10437;48.156;11.530;2023-03-01T13:30:43;25.40;;;13.93;;
20557;SDS011;10437;48.156;11.530;2023-03-01T13:35:58;29.40;;;15.00;;
20557;SDS011;10437;48.156;11.530;2023-03-01T13:38:36;25.50;;;14.27;;
20557;SDS011;10437;48.156;11.530;2023-03-01T13:41:03;29.43;;;15.00;;
20557;SDS011;10437;48.156;11.530;2023-03-01T13:43:32;30.90;;;14.53;;
20557;SDS011;10437;48.156;11.530;2023-03-01T13:46:01;29.17;;;14.83;;
20557;SDS011;10437;48.156;11.530;2023-03-01T13:48:36;27.43;;;14.47;;
20557;SDS011;10437;48.156;11.530;2023-03-01T13:51:04;31.20;;;14.60;;
20557;SDS011;10437;48.156;11.530;2023-03-01T13:53:33;31.17;;;14.97;;
20557;SDS011;10437;48.156;11.530;2023-03-01T13:56:03;30.27;;;14.70;;
20557;SDS011;10437;48.156;11.530;2023-03-01T13:58:46;29.10;;;15.73;;
20557;SDS011;10437;48.156;11.530;2023-03-01T14:01:20;31.23;;;15.13;;
20557;SDS011;10437;48.156;11.530;2023-03-01T14:03:49;27.90;;;14.87;;
20557;SDS011;10437;48.156;11.530;2023-03-01T14:06:19;34.80;;;15.93;;
20557;SDS011;10437;48.156;11.530;2023-03-01T14:08:48;31.27;;;16.23;;
20557;SDS011;10437;48.156;11.530;2023-03-01T14:14:25;28.70;;;14.27;;
20557;SDS011;10437;48.156;11.530;2023-03-01T14:17:07;28.27;;;14.27;;
20557;SDS011;10437;48.156;11.530;2023-03-01T14:19:36;27.30;;;14.07;;
20557;SDS011;10437;48.156;11.530;2023-03-01T14:22:06;29.07;;;14.30;;
20557;SDS011;10437;48.156;11.530;2023-03-01T14:24:44;28.23;;;14.07;;
20557;SDS011;10437;48.156;11.530;2023-03-01T14:27:11;29.83;;;14.90;;
20557;SDS011;10437;48.156;11.530;2023-03-01T14:29:40;32.03;;;15.00;;
20557;SDS011;10437;48.156;11.530;2023-03-01T14:32:11;26.90;;;15.40;;
20557;SDS011;10437;48.156;11.530;2023-03-01T14:34:44;27.87;;;14.17;;
20557;SDS011;10437;48.156;11.530;2023-03-01T14:37:17;23.87;;;13.83;;
20557;SDS011;10437;48.156;11.530;2023-03-01T14:39:46;25.57;;;14.10;;
20557;SDS011;10437;48.156;11.530;2023-03-01T14:42:14;26.47;;;14.03;;
20557;SDS011;10437;48.156;11.530;2023-03-01T14:44:43;28.20;;;13.73;;
20557;SDS011;10437;48.156;11.530;2023-03-01T14:47:11;27.83;;;13.93;;
20557;SDS011;10437;48.156;11.530;2023-03-01T14:49:39;29.10;;;14.23;;